sensor_id;sensor_type;location;lat;lon;timestamp;P1;durP1;ratioP1;P2;durP2;ratioP2
77736;SDS011;66903;59.926;30.404;2023-07-31T00:02:12;6.15;;;2.85;;
77736;SDS011;66903;59.926;30.404;2023-07-31T00:07:13;8.10;;;2.78;;
77736;SDS011;66903;59.926;30.404;2023-07-31T00:12:13;10.30;;;2.80;;
77736;SDS011;66903;59.926;30.404;2023-07-31T00:17:14;9.75;;;2.50;;
77736;SDS011;66903;59.926;30.404;2023-07-31T00:22:15;5.60;;;2.53;;
77736;SDS011;66903;59.926;30.404;2023-07-31T00:27:15;7.70;;;2.95;;
77736;SDS011;66903;59.926;30.404;2023-07-31T00:32:16;7.82;;;2.88;;
77736;SDS011;66903;59.926;30.404;2023-07-31T00:37:19;6.03;;;2.72;;
77736;SDS011;66903;59.926;30.404;2023-07-31T00:42:20;6.45;;;2.63;;
77736;SDS011;66903;59.926;30.404;2023-07-31T00:47:20;6.72;;;2.65;;
77736;SDS011;66903;59.926;30.404;2023-07-31T00:52:21;6.05;;;2.53;;
77736;SDS011;66903;59.926;30.404;2023-07-31T00:57:21;6.90;;;2.72;;
77736;SDS011;66903;59.926;30.404;2023-07-31T01:02:22;8.27;;;2.50;;
77736;SDS011;66903;59.926;30.404;2023-07-31T01:12:57;6.95;;;2.60;;
77736;SDS011;66903;59.926;30.404;2023-07-31T01:17:58;9.10;;;2.90;;
77736;SDS011;66903;59.926;30.404;2023-07-31T01:38:45;9.27;;;2.88;;
77736;SDS011;66903;59.926;30.404;2023-07-31T01:43:46;7.68;;;3.45;;
77736;SDS011;66903;59.926;30.404;2023-07-31T01:48:47;10.30;;;3.45;;
77736;SDS011;66903;59.926;30.404;2023-07-31T01:53:47;9.48;;;3.38;;
77736;SDS011;66903;59.926;30.404;2023-07-31T01:58:48;7.32;;;3.03;;
77736;SDS011;66903;59.926;30.404;2023-07-31T02:03:48;9.73;;;3.15;;
77736;SDS011;66903;59.926;30.404;2023-07-31T02:08:49;6.85;;;2.58;;
77736;SDS011;66903;59.926;30.404;2023-07-31T02:13:49;6.78;;;3.22;;
77736;SDS011;66903;59.926;30.404;2023-07-31T02:18:50;7.72;;;4.00;;
77736;SDS011;66903;59.926;30.404;2023-07-31T02:23:50;23.45;;;3.47;;
77736;SDS011;66903;59.926;30.404;2023-07-31T02:28:51;7.90;;;2.90;;
77736;SDS011;66903;59.926;30.404;2023-07-31T02:33:51;10.80;;;3.60;;
77736;SDS011;66903;59.926;30.404;2023-07-31T02:38:52;8.45;;;3.15;;
77736;SDS011;66903;59.926;30.404;2023-07-31T02:43:52;8.38;;;3.60;;
77736;SDS011;66903;59.926;30.404;2023-07-31T02:48:53;10.25;;;3.10;;
77736;SDS011;66903;59.926;30.404;2023-07-31T02:53:53;9.25;;;3.42;;
77736;SDS011;66903;59.926;30.404;2023-07-31T02:58:54;8.77;;;3.30;;
77736;SDS011;66903;59.926;30.404;2023-07-31T03:03:54;8.50;;;3.28;;
77736;SDS011;66903;59.926;30.404;2023-07-31T03:08:55;7.15;;;3.00;;
77736;SDS011;66903;59.926;30.404;2023-07-31T03:13:55;11.65;;;3.80;;
77736;SDS011;66903;59.926;30.404;2023-07-31T03:18:56;12.88;;;3.30;;
77736;SDS011;66903;59.926;30.404;2023-07-31T03:23:56;11.95;;;3.25;;
77736;SDS011;66903;59.926;30.404;2023-07-31T03:28:57;8.35;;;3.05;;
77736;SDS011;66903;59.926;30.404;2023-07-31T03:33:58;7.57;;;2.72;;
77736;SDS011;66903;59.926;30.404;2023-07-31T03:38:58;9.70;;;3.65;;
77736;SDS011;66903;59.926;30.404;2023-07-31T03:43:59;8.02;;;3.30;;
77736;SDS011;66903;59.926;30.404;2023-07-31T03:48:59;5.32;;;2.50;;
77736;SDS011;66903;59.926;30.404;2023-07-31T03:54:00;11.15;;;3.03;;
77736;SDS011;66903;59.926;30.404;2023-07-31T03:59:00;9.50;;;3.80;;
77736;SDS011;66903;59.926;30.404;2023-07-31T04:04:01;9.20;;;3.58;;
77736;SDS011;66903;59.926;30.404;2023-07-31T04:09:02;14.35;;;3.47;;
77736;SDS011;66903;59.926;30.404;2023-07-31T04:14:03;6.88;;;2.85;;
77736;SDS011;66903;59.926;30.404;2023-07-31T04:19:03;9.75;;;3.20;;
77736;SDS011;66903;59.926;30.404;2023-07-31T04:24:04;8.70;;;2.85;;
77736;SDS011;66903;59.926;30.404;2023-07-31T04:29:04;6.45;;;2.45;;
77736;SDS011;66903;59.926;30.404;2023-07-31T04:34:05;6.68;;;2.58;;
77736;SDS011;66903;59.926;30.404;2023-07-31T04:39:06;5.05;;;2.20;;
77736;SDS011;66903;59.926;30.404;2023-07-31T04:44:06;5.15;;;1.83;;
77736;SDS011;66903;59.926;30.404;2023-07-31T04:49:07;4.72;;;1.70;;
77736;SDS011;66903;59.926;30.404;2023-07-31T04:54:07;7.65;;;2.67;;
77736;SDS011;66903;59.926;30.404;2023-07-31T04:59:08;7.03;;;2.88;;
77736;SDS011;66903;59.926;30.404;2023-07-31T05:04:08;5.20;;;1.85;;
77736;SDS011;66903;59.926;30.404;2023-07-31T05:09:09;6.03;;;2.08;;
77736;SDS011;66903;59.926;30.404;2023-07-31T05:14:10;5.93;;;2.15;;
77736;SDS011;66903;59.926;30.404;2023-07-31T05:19:10;4.10;;;1.90;;
77736;SDS011;66903;59.926;30.404;2023-07-31T05:24:11;9.68;;;1.80;;
77736;SDS011;66903;59.926;30.404;2023-07-31T05:29:12;7.97;;;2.40;;
77736;SDS011;66903;59.926;30.404;2023-07-31T05:34:12;6.90;;;2.50;;
77736;SDS011;66903;59.926;30.404;2023-07-31T05:39:13;5.47;;;2.40;;
77736;SDS011;66903;59.926;30.404;2023-07-31T05:44:13;5.32;;;2.08;;
77736;SDS011;66903;59.926;30.404;2023-07-31T05:49:14;6.05;;;2.33;;
77736;SDS011;66903;59.926;30.404;2023-07-31T05:54:14;9.65;;;2.20;;
77736;SDS011;66903;59.926;30.404;2023-07-31T05:59:15;6.72;;;2.08;;
77736;SDS011;66903;59.926;30.404;2023-07-31T06:04:16;5.40;;;1.80;;
77736;SDS011;66903;59.926;30.404;2023-07-31T06:09:17;9.02;;;2.72;;
77736;SDS011;66903;59.926;30.404;2023-07-31T06:14:18;8.95;;;2.55;;
77736;SDS011;66903;59.926;30.404;2023-07-31T06:19:22;4.70;;;2.28;;
77736;SDS011;66903;59.926;30.404;2023-07-31T06:24:23;5.60;;;1.80;;
77736;SDS011;66903;59.926;30.404;2023-07-31T06:29:23;5.25;;;2.00;;
77736;SDS011;66903;59.926;30.404;2023-07-31T06:34:24;4.07;;;2.00;;
77736;SDS011;66903;59.926;30.404;2023-07-31T06:39:24;4.80;;;2.30;;
77736;SDS011;66903;59.926;30.404;2023-07-31T06:44:25;4.55;;;1.77;;
77736;SDS011;66903;59.926;30.404;2023-07-31T06:49:26;5.82;;;2.47;;
77736;SDS011;66903;59.926;30.404;2023-07-31T06:54:26;4.97;;;1.60;;
77736;SDS011;66903;59.926;30.404;2023-07-31T06:59:27;6.53;;;1.58;;
77736;SDS011;66903;59.926;30.404;2023-07-31T07:04:27;3.63;;;1.58;;
77736;SDS011;66903;59.926;30.404;2023-07-31T07:09:28;4.28;;;1.63;;
77736;SDS011;66903;59.926;30.404;2023-07-31T07:14:28;9.02;;;1.60;;
77736;SDS011;66903;59.926;30.404;2023-07-31T07:19:29;4.38;;;1.27;;
77736;SDS011;66903;59.926;30.404;2023-07-31T07:24:29;3.20;;;1.20;;
77736;SDS011;66903;59.926;30.404;2023-07-31T07:29:30;3.83;;;1.48;;
77736;SDS011;66903;59.926;30.404;2023-07-31T07:34:30;3.20;;;1.23;;
77736;SDS011;66903;59.926;30.404;2023-07-31T07:39:31;4.07;;;1.23;;
77736;SDS011;66903;59.926;30.404;2023-07-31T07:44:31;5.10;;;1.50;;
77736;SDS011;66903;59.926;30.404;2023-07-31T07:49:33;5.32;;;1.48;;
77736;SDS011;66903;59.926;30.404;2023-07-31T07:54:34;4.53;;;1.80;;
77736;SDS011;66903;59.926;30.404;2023-07-31T07:59:35;3.40;;;1.45;;
77736;SDS011;66903;59.926;30.404;2023-07-31T08:04:35;7.78;;;1.70;;
77736;SDS011;66903;59.926;30.404;2023-07-31T08:09:36;4.55;;;1.50;;
77736;SDS011;66903;59.926;30.404;2023-07-31T08:14:36;4.88;;;1.60;;
77736;SDS011;66903;59.926;30.404;2023-07-31T08:19:37;4.65;;;1.30;;
77736;SDS011;66903;59.926;30.404;2023-07-31T08:24:38;4.55;;;1.20;;
77736;SDS011;66903;59.926;30.404;2023-07-31T08:29:38;4.47;;;1.50;;
77736;SDS011;66903;59.926;30.404;2023-07-31T08:34:39;4.15;;;1.58;;
77736;SDS011;66903;59.926;30.404;2023-07-31T08:39:39;3.35;;;1.15;;
77736;SDS011;66903;59.926;30.404;2023-07-31T08:44:40;2.97;;;1.10;;
77736;SDS011;66903;59.926;30.404;2023-07-31T08:49:41;3.75;;;1.25;;
77736;SDS011;66903;59.926;30.404;2023-07-31T08:54:43;2.70;;;1.00;;
77736;SDS011;66903;59.926;30.404;2023-07-31T08:59:44;3.40;;;1.00;;
77736;SDS011;66903;59.926;30.404;2023-07-31T09:04:45;1.48;;;0.80;;
77736;SDS011;66903;59.926;30.404;2023-07-31T09:09:46;4.22;;;0.90;;
77736;SDS011;66903;59.926;30.404;2023-07-31T09:14:46;2.17;;;0.82;;
77736;SDS011;66903;59.926;30.404;2023-07-31T09:19:47;2.63;;;0.90;;
77736;SDS011;66903;59.926;30.404;2023-07-31T09:24:47;9.50;;;1.00;;
77736;SDS011;66903;59.926;30.404;2023-07-31T09:29:58;2.60;;;0.90;;
77736;SDS011;66903;59.926;30.404;2023-07-31T09:34:59;2.95;;;0.90;;
77736;SDS011;66903;59.926;30.404;2023-07-31T09:39:59;2.63;;;0.90;;
77736;SDS011;66903;59.926;30.404;2023-07-31T09:45:09;1.88;;;0.77;;
77736;SDS011;66903;59.926;30.404;2023-07-31T09:50:10;1.85;;;0.70;;
77736;SDS011;66903;59.926;30.404;2023-07-31T09:55:11;4.00;;;1.10;;
77736;SDS011;66903;59.926;30.404;2023-07-31T10:00:12;3.50;;;1.00;;
77736;SDS011;66903;59.926;30.404;2023-07-31T10:05:14;2.13;;;0.80;;
77736;SDS011;66903;59.926;30.404;2023-07-31T10:10:16;2.33;;;0.80;;
77736;SDS011;66903;59.926;30.404;2023-07-31T10:15:18;2.25;;;0.63;;
77736;SDS011;66903;59.926;30.404;2023-07-31T10:20:19;2.75;;;0.75;;
77736;SDS011;66903;59.926;30.404;2023-07-31T10:25:21;1.70;;;0.65;;
77736;SDS011;66903;59.926;30.404;2023-07-31T10:30:26;3.15;;;1.10;;
77736;SDS011;66903;59.926;30.404;2023-07-31T10:35:29;3.10;;;0.85;;
77736;SDS011;66903;59.926;30.404;2023-07-31T10:40:30;3.25;;;1.02;;
77736;SDS011;66903;59.926;30.404;2023-07-31T10:45:34;2.33;;;0.88;;
77736;SDS011;66903;59.926;30.404;2023-07-31T10:50:46;2.40;;;0.90;;
77736;SDS011;66903;59.926;30.404;2023-07-31T10:56:00;3.47;;;1.00;;
77736;SDS011;66903;59.926;30.404;2023-07-31T11:01:02;2.08;;;0.93;;
77736;SDS011;66903;59.926;30.404;2023-07-31T11:06:04;2.70;;;0.90;;
77736;SDS011;66903;59.926;30.404;2023-07-31T11:11:06;4.03;;;1.00;;
77736;SDS011;66903;59.926;30.404;2023-07-31T11:16:08;2.75;;;1.05;;
77736;SDS011;66903;59.926;30.404;2023-07-31T11:21:13;4.47;;;1.15;;
77736;SDS011;66903;59.926;30.404;2023-07-31T11:26:14;5.95;;;1.33;;
77736;SDS011;66903;59.926;30.404;2023-07-31T11:31:15;6.43;;;1.17;;
77736;SDS011;66903;59.926;30.404;2023-07-31T11:36:17;3.33;;;1.20;;
77736;SDS011;66903;59.926;30.404;2023-07-31T11:41:19;3.22;;;1.17;;
77736;SDS011;66903;59.926;30.404;2023-07-31T11:46:19;4.05;;;1.45;;
77736;SDS011;66903;59.926;30.404;2023-07-31T11:51:20;3.85;;;1.30;;
77736;SDS011;66903;59.926;30.404;2023-07-31T11:56:21;2.88;;;0.90;;
77736;SDS011;66903;59.926;30.404;2023-07-31T12:01:24;2.22;;;0.93;;
77736;SDS011;66903;59.926;30.404;2023-07-31T12:06:37;3.55;;;1.08;;
77736;SDS011;66903;59.926;30.404;2023-07-31T12:11:47;4.32;;;0.93;;
77736;SDS011;66903;59.926;30.404;2023-07-31T12:16:47;2.80;;;0.95;;
77736;SDS011;66903;59.926;30.404;2023-07-31T12:21:52;2.78;;;0.95;;
77736;SDS011;66903;59.926;30.404;2023-07-31T12:26:53;2.20;;;0.80;;
77736;SDS011;66903;59.926;30.404;2023-07-31T12:31:55;4.28;;;0.93;;
77736;SDS011;66903;59.926;30.404;2023-07-31T12:36:55;2.05;;;0.80;;
77736;SDS011;66903;59.926;30.404;2023-07-31T12:41:56;2.40;;;0.98;;
77736;SDS011;66903;59.926;30.404;2023-07-31T12:46:56;3.03;;;0.95;;
77736;SDS011;66903;59.926;30.404;2023-07-31T12:51:57;4.18;;;1.00;;
77736;SDS011;66903;59.926;30.404;2023-07-31T12:56:57;3.15;;;1.20;;
77736;SDS011;66903;59.926;30.404;2023-07-31T13:01:58;5.00;;;1.17;;
77736;SDS011;66903;59.926;30.404;2023-07-31T13:06:59;4.28;;;1.63;;
77736;SDS011;66903;59.926;30.404;2023-07-31T13:11:59;5.60;;;3.17;;
77736;SDS011;66903;59.926;30.404;2023-07-31T13:17:00;6.00;;;2.83;;
77736;SDS011;66903;59.926;30.404;2023-07-31T13:22:00;4.47;;;2.10;;
77736;SDS011;66903;59.926;30.404;2023-07-31T13:27:01;12.73;;;5.75;;
77736;SDS011;66903;59.926;30.404;2023-07-31T13:32:02;8.75;;;4.53;;
77736;SDS011;66903;59.926;30.404;2023-07-31T13:37:02;7.57;;;3.75;;
77736;SDS011;66903;59.926;30.404;2023-07-31T13:42:03;8.95;;;4.65;;
77736;SDS011;66903;59.926;30.404;2023-07-31T13:47:08;6.25;;;3.35;;
77736;SDS011;66903;59.926;30.404;2023-07-31T13:52:09;7.28;;;3.80;;
77736;SDS011;66903;59.926;30.404;2023-07-31T13:57:10;11.00;;;5.55;;
77736;SDS011;66903;59.926;30.404;2023-07-31T14:02:10;12.25;;;6.00;;
77736;SDS011;66903;59.926;30.404;2023-07-31T14:07:11;13.73;;;7.13;;
77736;SDS011;66903;59.926;30.404;2023-07-31T14:12:11;10.52;;;5.03;;
77736;SDS011;66903;59.926;30.404;2023-07-31T14:17:12;14.05;;;4.55;;
77736;SDS011;66903;59.926;30.404;2023-07-31T14:22:13;14.15;;;4.05;;
77736;SDS011;66903;59.926;30.404;2023-07-31T14:27:14;9.32;;;3.70;;
77736;SDS011;66903;59.926;30.404;2023-07-31T14:32:14;8.52;;;3.60;;
77736;SDS011;66903;59.926;30.404;2023-07-31T14:37:15;16.58;;;3.25;;
77736;SDS011;66903;59.926;30.404;2023-07-31T14:42:15;5.63;;;2.72;;
77736;SDS011;66903;59.926;30.404;2023-07-31T14:47:18;7.10;;;2.35;;
77736;SDS011;66903;59.926;30.404;2023-07-31T14:52:18;5.78;;;2.47;;
77736;SDS011;66903;59.926;30.404;2023-07-31T14:57:19;8.30;;;2.80;;
77736;SDS011;66903;59.926;30.404;2023-07-31T15:02:20;7.38;;;2.20;;
77736;SDS011;66903;59.926;30.404;2023-07-31T15:07:20;4.30;;;1.80;;
77736;SDS011;66903;59.926;30.404;2023-07-31T15:12:21;5.28;;;2.05;;
77736;SDS011;66903;59.926;30.404;2023-07-31T15:17:21;4.68;;;1.85;;
77736;SDS011;66903;59.926;30.404;2023-07-31T15:22:22;4.03;;;1.70;;
77736;SDS011;66903;59.926;30.404;2023-07-31T15:27:23;4.15;;;1.60;;
77736;SDS011;66903;59.926;30.404;2023-07-31T15:32:23;7.68;;;1.67;;
77736;SDS011;66903;59.926;30.404;2023-07-31T15:37:24;5.50;;;1.90;;
77736;SDS011;66903;59.926;30.404;2023-07-31T15:42:24;4.28;;;1.63;;
77736;SDS011;66903;59.926;30.404;2023-07-31T15:47:25;6.55;;;1.50;;
77736;SDS011;66903;59.926;30.404;2023-07-31T15:52:25;4.43;;;1.50;;
77736;SDS011;66903;59.926;30.404;2023-07-31T15:57:26;6.13;;;2.38;;
77736;SDS011;66903;59.926;30.404;2023-07-31T16:02:26;7.80;;;2.13;;
77736;SDS011;66903;59.926;30.404;2023-07-31T16:07:27;8.90;;;2.17;;
77736;SDS011;66903;59.926;30.404;2023-07-31T16:12:27;5.35;;;1.83;;
77736;SDS011;66903;59.926;30.404;2023-07-31T16:17:28;6.60;;;2.00;;
77736;SDS011;66903;59.926;30.404;2023-07-31T16:22:29;8.98;;;2.10;;
77736;SDS011;66903;59.926;30.404;2023-07-31T16:27:29;5.13;;;1.92;;
77736;SDS011;66903;59.926;30.404;2023-07-31T16:32:30;5.53;;;2.03;;
77736;SDS011;66903;59.926;30.404;2023-07-31T16:37:31;5.90;;;2.60;;
77736;SDS011;66903;59.926;30.404;2023-07-31T16:42:31;6.80;;;1.88;;
77736;SDS011;66903;59.926;30.404;2023-07-31T16:47:32;5.03;;;2.15;;
77736;SDS011;66903;59.926;30.404;2023-07-31T16:52:33;5.53;;;1.85;;
77736;SDS011;66903;59.926;30.404;2023-07-31T16:57:33;5.15;;;1.77;;
77736;SDS011;66903;59.926;30.404;2023-07-31T17:02:34;5.78;;;1.98;;
77736;SDS011;66903;59.926;30.404;2023-07-31T17:07:34;4.80;;;2.22;;
77736;SDS011;66903;59.926;30.404;2023-07-31T17:12:35;7.63;;;2.25;;
77736;SDS011;66903;59.926;30.404;2023-07-31T17:17:35;5.35;;;2.17;;
77736;SDS011;66903;59.926;30.404;2023-07-31T17:22:36;7.60;;;2.58;;
77736;SDS011;66903;59.926;30.404;2023-07-31T17:27:36;7.78;;;3.78;;
77736;SDS011;66903;59.926;30.404;2023-07-31T17:32:37;21.83;;;13.00;;
77736;SDS011;66903;59.926;30.404;2023-07-31T17:37:37;17.25;;;10.75;;
77736;SDS011;66903;59.926;30.404;2023-07-31T17:42:38;15.18;;;8.30;;
77736;SDS011;66903;59.926;30.404;2023-07-31T17:47:39;11.27;;;7.50;;
77736;SDS011;66903;59.926;30.404;2023-07-31T17:52:39;11.65;;;7.60;;
77736;SDS011;66903;59.926;30.404;2023-07-31T17:57:40;11.45;;;6.13;;
77736;SDS011;66903;59.926;30.404;2023-07-31T18:02:40;9.75;;;5.57;;
77736;SDS011;66903;59.926;30.404;2023-07-31T18:07:41;8.93;;;4.68;;
77736;SDS011;66903;59.926;30.404;2023-07-31T18:12:42;9.00;;;4.50;;
77736;SDS011;66903;59.926;30.404;2023-07-31T18:17:42;8.18;;;4.97;;
77736;SDS011;66903;59.926;30.404;2023-07-31T18:22:43;8.82;;;4.50;;
77736;SDS011;66903;59.926;30.404;2023-07-31T18:27:43;7.57;;;4.55;;
77736;SDS011;66903;59.926;30.404;2023-07-31T18:32:44;7.38;;;3.53;;
77736;SDS011;66903;59.926;30.404;2023-07-31T18:37:45;8.50;;;3.35;;
77736;SDS011;66903;59.926;30.404;2023-07-31T18:42:46;6.25;;;3.28;;
77736;SDS011;66903;59.926;30.404;2023-07-31T18:47:46;8.15;;;3.80;;
77736;SDS011;66903;59.926;30.404;2023-07-31T18:52:47;8.43;;;3.53;;
77736;SDS011;66903;59.926;30.404;2023-07-31T18:57:48;7.22;;;2.90;;
77736;SDS011;66903;59.926;30.404;2023-07-31T19:02:49;7.13;;;2.90;;
77736;SDS011;66903;59.926;30.404;2023-07-31T19:07:50;5.97;;;3.22;;
77736;SDS011;66903;59.926;30.404;2023-07-31T19:12:50;8.05;;;2.67;;
77736;SDS011;66903;59.926;30.404;2023-07-31T19:17:51;6.63;;;2.92;;
77736;SDS011;66903;59.926;30.404;2023-07-31T19:22:52;7.43;;;2.60;;
77736;SDS011;66903;59.926;30.404;2023-07-31T19:27:52;5.53;;;2.72;;
77736;SDS011;66903;59.926;30.404;2023-07-31T19:32:53;5.70;;;2.80;;
77736;SDS011;66903;59.926;30.404;2023-07-31T19:37:53;6.97;;;2.60;;
77736;SDS011;66903;59.926;30.404;2023-07-31T19:42:54;6.35;;;2.90;;
77736;SDS011;66903;59.926;30.404;2023-07-31T19:47:58;4.57;;;2.28;;
77736;SDS011;66903;59.926;30.404;2023-07-31T19:52:58;6.47;;;2.58;;
77736;SDS011;66903;59.926;30.404;2023-07-31T19:57:59;8.45;;;3.25;;
77736;SDS011;66903;59.926;30.404;2023-07-31T20:03:01;5.85;;;2.42;;
77736;SDS011;66903;59.926;30.404;2023-07-31T20:08:02;5.82;;;2.97;;
77736;SDS011;66903;59.926;30.404;2023-07-31T20:13:03;6.90;;;3.38;;
77736;SDS011;66903;59.926;30.404;2023-07-31T20:18:03;5.80;;;2.80;;
77736;SDS011;66903;59.926;30.404;2023-07-31T20:23:04;6.47;;;3.25;;
77736;SDS011;66903;59.926;30.404;2023-07-31T20:28:04;9.60;;;3.20;;
77736;SDS011;66903;59.926;30.404;2023-07-31T20:33:05;8.13;;;2.92;;
77736;SDS011;66903;59.926;30.404;2023-07-31T20:38:05;8.55;;;2.85;;
77736;SDS011;66903;59.926;30.404;2023-07-31T20:43:06;6.60;;;2.67;;
77736;SDS011;66903;59.926;30.404;2023-07-31T20:48:07;5.20;;;2.58;;
77736;SDS011;66903;59.926;30.404;2023-07-31T20:53:08;5.05;;;2.47;;
77736;SDS011;66903;59.926;30.404;2023-07-31T20:58:09;6.07;;;2.78;;
77736;SDS011;66903;59.926;30.404;2023-07-31T21:03:09;4.78;;;2.28;;
77736;SDS011;66903;59.926;30.404;2023-07-31T21:08:11;5.00;;;1.98;;
77736;SDS011;66903;59.926;30.404;2023-07-31T21:13:11;4.60;;;2.60;;
77736;SDS011;66903;59.926;30.404;2023-07-31T21:18:12;5.35;;;2.60;;
77736;SDS011;66903;59.926;30.404;2023-07-31T21:23:15;5.28;;;2.17;;
77736;SDS011;66903;59.926;30.404;2023-07-31T21:28:15;5.88;;;2.70;;
77736;SDS011;66903;59.926;30.404;2023-07-31T21:33:16;5.13;;;2.45;;
77736;SDS011;66903;59.926;30.404;2023-07-31T21:38:17;5.38;;;2.38;;
77736;SDS011;66903;59.926;30.404;2023-07-31T21:43:17;7.32;;;2.45;;
77736;SDS011;66903;59.926;30.404;2023-07-31T21:48:18;5.85;;;2.30;;
77736;SDS011;66903;59.926;30.404;2023-07-31T21:53:18;4.88;;;2.60;;
77736;SDS011;66903;59.926;30.404;2023-07-31T21:58:19;5.07;;;2.35;;
77736;SDS011;66903;59.926;30.404;2023-07-31T22:03:19;6.05;;;2.55;;
77736;SDS011;66903;59.926;30.404;2023-07-31T22:08:20;4.93;;;2.78;;
77736;SDS011;66903;59.926;30.404;2023-07-31T22:13:20;13.25;;;3.88;;
77736;SDS011;66903;59.926;30.404;2023-07-31T22:18:21;7.60;;;2.88;;
77736;SDS011;66903;59.926;30.404;2023-07-31T22:23:21;6.35;;;3.05;;
77736;SDS011;66903;59.926;30.404;2023-07-31T22:28:22;7.05;;;2.90;;
77736;SDS011;66903;59.926;30.404;2023-07-31T22:33:22;5.65;;;3.08;;
77736;SDS011;66903;59.926;30.404;2023-07-31T22:38:23;5.88;;;2.65;;
77736;SDS011;66903;59.926;30.404;2023-07-31T22:43:23;5.93;;;2.85;;
77736;SDS011;66903;59.926;30.404;2023-07-31T22:48:24;5.30;;;2.60;;
77736;SDS011;66903;59.926;30.404;2023-07-31T22:53:24;5.90;;;3.13;;
77736;SDS011;66903;59.926;30.404;2023-07-31T22:58:25;5.75;;;2.97;;
77736;SDS011;66903;59.926;30.404;2023-07-31T23:03:26;5.38;;;2.45;;
77736;SDS011;66903;59.926;30.404;2023-07-31T23:08:26;6.35;;;2.90;;
77736;SDS011;66903;59.926;30.404;2023-07-31T23:13:27;6.75;;;3.05;;
77736;SDS011;66903;59.926;30.404;2023-07-31T23:18:28;6.10;;;2.92;;
77736;SDS011;66903;59.926;30.404;2023-07-31T23:23:29;6.05;;;3.08;;
77736;SDS011;66903;59.926;30.404;2023-07-31T23:28:29;5.60;;;2.83;;
77736;SDS011;66903;59.926;30.404;2023-07-31T23:33:30;8.10;;;3.28;;
77736;SDS011;66903;59.926;30.404;2023-07-31T23:38:31;8.68;;;2.95;;
77736;SDS011;66903;59.926;30.404;2023-07-31T23:43:32;6.22;;;3.00;;
77736;SDS011;66903;59.926;30.404;2023-07-31T23:48:33;6.85;;;3.53;;
77736;SDS011;66903;59.926;30.404;2023-07-31T23:53:33;5.50;;;3.20;;
77736;SDS011;66903;59.926;30.404;2023-07-31T23:58:34;6.00;;;3.22;;
